Time;durP1;ratioP1;P1;durP2;ratioP2;P2;SDS_P1;SDS_P2;PMS_P1;PMS_P2;Temp;Humidity;BMP_temperature;BMP_pressure;BME280_temperature;BME280_humidity;BME280_pressure;Samples;Min_cycle;Max_cycle;Signal;HPM_P1;HPM_P2
2023/06/12 04:00:38;;;;;;;2.37;1.90;;;16.50;99.90;;;;;;5831884;23;21000;-72
2023/06/12 04:03:08;;;;;;;3.00;2.90;;;16.50;99.90;;;;;;4987136;28;20469;-72
2023/06/12 04:05:35;;;;;;;2.30;2.10;;;16.60;99.90;;;;;;4984767;28;20470;-72
2023/06/12 04:08:02;;;;;;;3.17;3.07;;;16.60;99.90;;;;;;4980399;28;20464;-71
2023/06/12 04:10:28;;;;;;;2.47;2.37;;;16.70;99.90;;;;;;4985171;28;20466;-70
2023/06/12 04:12:56;;;;;;;2.60;2.50;;;16.70;99.90;;;;;;4988883;28;20474;-71
2023/06/12 04:15:23;;;;;;;4.33;3.10;;;16.80;99.90;;;;;;4993571;28;20474;-72
2023/06/12 04:17:51;;;;;;;3.00;2.80;;;16.90;99.90;;;;;;4987663;28;20479;-72
2023/06/12 04:20:18;;;;;;;3.33;3.10;;;16.90;99.90;;;;;;4993806;28;20482;-71
2023/06/12 04:22:47;;;;;;;3.43;2.70;;;17.10;99.90;;;;;;4992860;28;20466;-71
2023/06/12 04:25:14;;;;;;;3.00;2.90;;;17.70;99.90;;;;;;4986986;28;20533;-71
2023/06/12 04:27:42;;;;;;;2.73;2.63;;;18.30;99.90;;;;;;4994562;28;20561;-71
2023/06/12 04:30:10;;;;;;;3.43;3.33;;;19.00;99.90;;;;;;4979745;28;20895;-70
2023/06/12 04:32:37;;;;;;;3.00;2.80;;;19.70;99.90;;;;;;4990333;28;20936;-70
2023/06/12 04:35:06;;;;;;;3.63;3.43;;;20.20;99.90;;;;;;4990915;28;20530;-70
2023/06/12 04:37:33;;;;;;;3.90;3.70;;;20.70;99.90;;;;;;4992092;28;20477;-71
2023/06/12 04:40:00;;;;;;;3.10;3.00;;;21.20;99.90;;;;;;4993541;28;20479;-71
2023/06/12 04:42:26;;;;;;;3.37;3.27;;;21.40;99.90;;;;;;4990449;28;20500;-70
2023/06/12 04:44:53;;;;;;;3.23;3.13;;;21.60;99.90;;;;;;4993462;28;20562;-70
2023/06/12 04:47:20;;;;;;;3.07;2.90;;;21.70;99.90;;;;;;4987983;28;20486;-70
2023/06/12 04:49:47;;;;;;;3.70;3.47;;;21.90;99.90;;;;;;4986838;28;20514;-71
2023/06/12 04:52:18;;;;;;;2.20;2.20;;;22.00;99.90;;;;;;4987656;28;20584;-71
2023/06/12 04:54:47;;;;;;;2.87;2.67;;;22.40;99.90;;;;;;4983012;28;20584;-72
2023/06/12 04:57:16;;;;;;;3.10;3.00;;;22.50;99.90;;;;;;4991084;28;20499;-71
2023/06/12 04:59:44;;;;;;;4.50;4.37;;;22.80;99.90;;;;;;4993397;28;20490;-72
2023/06/12 05:02:11;;;;;;;2.80;2.70;;;23.10;99.90;;;;;;4993254;28;20568;-72
2023/06/12 05:04:38;;;;;;;3.87;3.57;;;23.20;99.30;;;;;;4985777;28;20502;-72
2023/06/12 05:07:13;;;;;;;3.30;3.20;;;23.00;98.70;;;;;;4983457;28;20476;-72
2023/06/12 05:09:41;;;;;;;2.83;2.73;;;23.30;98.50;;;;;;4983921;28;20488;-73
2023/06/12 05:12:08;;;;;;;3.30;3.20;;;23.50;98.40;;;;;;4983951;28;20491;-71
2023/06/12 05:14:35;;;;;;;3.33;3.23;;;23.60;96.80;;;;;;4990728;28;20475;-72
2023/06/12 05:17:02;;;;;;;3.17;3.07;;;23.70;96.70;;;;;;4992053;28;20507;-72
2023/06/12 05:19:29;;;;;;;2.70;2.67;;;23.80;96.50;;;;;;4992339;28;20485;-72
2023/06/12 05:21:56;;;;;;;2.63;2.63;;;23.90;95.70;;;;;;4991863;28;20497;-71
2023/06/12 05:24:23;;;;;;;3.50;3.20;;;24.00;95.30;;;;;;4988772;28;20832;-72
2023/06/12 05:26:51;;;;;;;3.20;3.10;;;24.00;95.30;;;;;;4992369;28;20467;-72
2023/06/12 05:29:18;;;;;;;3.00;2.83;;;24.40;95.10;;;;;;4992417;28;20850;-72
2023/06/12 05:31:45;;;;;;;4.20;4.00;;;25.00;94.60;;;;;;4990446;28;20492;-71
2023/06/12 05:34:11;;;;;;;2.60;2.60;;;25.40;93.20;;;;;;4988720;28;20955;-70
2023/06/12 05:36:38;;;;;;;2.73;2.63;;;25.70;92.20;;;;;;4987663;28;20471;-70
2023/06/12 05:39:05;;;;;;;3.23;3.13;;;25.80;91.90;;;;;;4992582;28;20861;-73
2023/06/12 05:41:32;;;;;;;2.27;2.27;;;26.10;91.30;;;;;;4990595;28;20553;-72
2023/06/12 05:44:00;;;;;;;3.67;3.40;;;26.60;90.60;;;;;;4986587;28;20578;-72
2023/06/12 05:46:27;;;;;;;3.47;3.37;;;26.80;89.00;;;;;;4984120;28;20489;-72
2023/06/12 05:48:57;;;;;;;2.27;2.27;;;26.80;87.50;;;;;;4988415;28;20498;-71
2023/06/12 05:51:24;;;;;;;1.97;1.97;;;26.70;86.00;;;;;;4987917;28;20506;-73
2023/06/12 05:53:50;;;;;;;2.50;2.50;;;26.40;86.10;;;;;;4977971;28;20478;-72
2023/06/12 05:56:17;;;;;;;2.27;2.27;;;26.50;85.10;;;;;;4989177;28;20854;-72
2023/06/12 05:58:44;;;;;;;2.70;2.70;;;26.60;84.80;;;;;;4986898;28;20537;-69
2023/06/12 06:01:16;;;;;;;2.50;2.50;;;26.80;83.70;;;;;;4988073;28;20495;-70
2023/06/12 06:03:45;;;;;;;2.43;2.43;;;26.80;83.00;;;;;;4990192;28;20843;-71
2023/06/12 06:06:13;;;;;;;2.77;2.67;;;27.30;82.50;;;;;;4981003;28;20467;-71
2023/06/12 06:08:40;;;;;;;2.67;2.67;;;27.50;79.90;;;;;;4986528;28;20467;-72
2023/06/12 06:11:07;;;;;;;2.17;2.07;;;27.90;79.40;;;;;;4987209;28;20511;-72
2023/06/12 06:13:33;;;;;;;2.43;2.43;;;28.10;75.30;;;;;;4990492;28;20462;-72
2023/06/12 06:16:01;;;;;;;2.60;2.50;;;27.90;75.10;;;;;;4981210;28;20464;-71
2023/06/12 06:18:30;;;;;;;2.80;2.70;;;28.00;75.50;;;;;;4987414;28;20498;-72
2023/06/12 06:20:57;;;;;;;2.03;1.90;;;28.10;72.50;;;;;;4984300;28;20487;-72
2023/06/12 06:23:23;;;;;;;2.10;2.10;;;28.10;70.80;;;;;;4985496;28;20463;-73
2023/06/12 06:25:50;;;;;;;2.23;2.23;;;28.10;72.20;;;;;;4989984;28;20844;-70
2023/06/12 06:28:17;;;;;;;1.70;1.70;;;28.30;70.60;;;;;;4990472;28;20467;-70
2023/06/12 06:30:44;;;;;;;3.40;3.13;;;28.50;70.40;;;;;;4990918;28;20487;-70
2023/06/12 06:33:10;;;;;;;4.23;3.97;;;28.80;69.60;;;;;;4990331;28;20490;-71
2023/06/12 06:35:39;;;;;;;2.20;2.20;;;28.70;66.20;;;;;;4982959;28;20951;-70
2023/06/12 06:38:05;;;;;;;3.27;3.00;;;28.80;66.20;;;;;;4990067;28;20994;-69
2023/06/12 06:40:32;;;;;;;3.03;2.60;;;28.80;65.40;;;;;;4982806;28;20490;-71
2023/06/12 06:42:59;;;;;;;2.10;2.00;;;28.90;64.20;;;;;;4972102;28;20470;-71
2023/06/12 06:45:25;;;;;;;2.43;2.40;;;29.10;63.10;;;;;;4990198;28;20467;-71
2023/06/12 06:47:52;;;;;;;4.57;4.33;;;29.40;62.60;;;;;;4990993;28;20502;-71
2023/06/12 06:50:19;;;;;;;1.90;1.90;;;29.70;62.40;;;;;;4988918;28;20462;-73
2023/06/12 06:52:47;;;;;;;1.90;1.90;;;29.30;61.60;;;;;;4983727;28;20806;-72
2023/06/12 06:55:14;;;;;;;2.27;2.27;;;29.50;61.70;;;;;;4987141;28;20477;-71
2023/06/12 06:57:42;;;;;;;1.67;1.67;;;29.50;60.10;;;;;;4986562;28;20475;-71
2023/06/12 07:00:11;;;;;;;2.33;2.20;;;29.20;60.00;;;;;;4990463;28;20522;-71
2023/06/12 07:02:39;;;;;;;1.53;1.53;;;29.40;59.80;;;;;;4988896;28;20520;-72
2023/06/12 07:05:07;;;;;;;2.10;2.10;;;29.80;59.80;;;;;;4990833;28;20462;-72
2023/06/12 07:07:34;;;;;;;1.77;1.77;;;29.80;59.50;;;;;;4983287;28;20562;-72
2023/06/12 07:10:02;;;;;;;2.40;2.40;;;30.10;58.60;;;;;;4988371;28;20458;-72
2023/06/12 07:12:29;;;;;;;3.47;3.37;;;30.10;59.10;;;;;;4977843;28;20494;-72
2023/06/12 07:14:55;;;;;;;1.57;1.57;;;30.50;58.50;;;;;;4987148;28;20463;-72
2023/06/12 07:17:22;;;;;;;1.37;1.37;;;30.60;57.70;;;;;;4988796;28;20838;-72
2023/06/12 07:19:49;;;;;;;1.73;1.70;;;30.70;56.80;;;;;;4990383;28;20487;-70
2023/06/12 07:22:16;;;;;;;1.20;1.20;;;30.90;56.40;;;;;;4988920;28;20838;-71
2023/06/12 07:24:43;;;;;;;1.60;1.60;;;30.80;54.70;;;;;;4988605;28;20510;-71
2023/06/12 07:27:11;;;;;;;1.70;1.70;;;30.90;54.70;;;;;;4990647;28;20517;-70
2023/06/12 07:29:38;;;;;;;2.57;2.50;;;30.80;54.80;;;;;;4990696;28;20467;-68
2023/06/12 07:32:05;;;;;;;2.07;2.07;;;30.90;55.60;;;;;;4983325;28;20594;-68
2023/06/12 07:34:32;;;;;;;1.50;1.50;;;31.10;55.30;;;;;;4985274;28;20990;-71
2023/06/12 07:37:00;;;;;;;1.03;1.03;;;31.50;54.60;;;;;;4989311;28;20566;-71
2023/06/12 07:39:27;;;;;;;1.60;1.60;;;31.30;53.80;;;;;;4981944;28;20474;-72
2023/06/12 07:41:54;;;;;;;2.00;1.90;;;31.20;52.40;;;;;;4989140;28;20908;-72
2023/06/12 07:44:22;;;;;;;1.70;1.70;;;30.90;53.00;;;;;;4988550;28;20495;-72
2023/06/12 07:46:49;;;;;;;1.20;1.20;;;30.80;53.90;;;;;;4988648;28;22268;-72
2023/06/12 07:49:17;;;;;;;1.67;1.67;;;30.30;52.40;;;;;;4988272;28;20463;-72
2023/06/12 07:51:44;;;;;;;1.60;1.60;;;29.90;53.00;;;;;;4986033;28;20485;-72
2023/06/12 07:54:12;;;;;;;1.43;1.43;;;29.80;52.70;;;;;;4981867;28;20472;-72
2023/06/12 07:56:40;;;;;;;1.67;1.67;;;29.60;52.60;;;;;;4988661;28;20505;-72
2023/06/12 07:59:07;;;;;;;2.07;1.97;;;29.60;53.10;;;;;;4989517;28;20952;-72
2023/06/12 08:01:36;;;;;;;1.30;1.20;;;29.40;52.30;;;;;;4989119;28;20490;-72
2023/06/12 08:04:03;;;;;;;1.73;1.73;;;29.00;53.30;;;;;;4987746;28;21005;-72
2023/06/12 08:06:35;;;;;;;1.80;1.70;;;29.20;52.70;;;;;;4986691;28;20598;-72
2023/06/12 08:09:02;;;;;;;4.73;1.70;;;29.10;53.70;;;;;;4989441;28;20871;-72
2023/06/12 08:11:29;;;;;;;1.90;1.90;;;29.50;53.10;;;;;;4986128;28;20480;-72
2023/06/12 08:13:56;;;;;;;1.90;1.90;;;29.50;53.70;;;;;;4993437;28;20830;-72
2023/06/12 08:16:23;;;;;;;1.47;1.47;;;29.40;53.60;;;;;;4992291;28;20510;-72
2023/06/12 08:18:52;;;;;;;1.60;1.50;;;29.10;52.50;;;;;;4987806;28;20473;-72
2023/06/12 08:21:18;;;;;;;1.50;1.50;;;29.20;53.90;;;;;;4990901;28;20509;-72
2023/06/12 08:23:45;;;;;;;2.53;1.70;;;29.10;52.90;;;;;;4993737;28;20463;-72
2023/06/12 08:26:12;;;;;;;2.23;2.13;;;28.80;52.00;;;;;;4992401;28;20482;-72
2023/06/12 08:28:38;;;;;;;0.90;0.90;;;28.70;52.20;;;;;;4993106;28;20466;-72
2023/06/12 08:31:05;;;;;;;2.13;1.77;;;28.60;50.90;;;;;;4991950;28;21027;-72
2023/06/12 08:33:32;;;;;;;1.97;1.80;;;28.40;51.60;;;;;;4986884;28;20470;-72
2023/06/12 08:36:00;;;;;;;1.30;1.30;;;28.30;50.90;;;;;;4988171;28;20482;-72
2023/06/12 08:38:28;;;;;;;1.73;1.73;;;28.40;51.40;;;;;;4988078;28;20470;-72
2023/06/12 08:40:56;;;;;;;1.60;1.60;;;28.60;51.20;;;;;;4991836;28;20486;-72
2023/06/12 08:43:23;;;;;;;1.43;1.43;;;28.50;50.60;;;;;;4993070;28;20466;-72
2023/06/12 08:45:52;;;;;;;1.90;1.90;;;28.60;51.00;;;;;;4992615;28;20509;-72
2023/06/12 08:48:22;;;;;;;1.63;1.63;;;28.80;50.90;;;;;;4983057;28;20468;-72
2023/06/12 08:50:50;;;;;;;2.90;2.70;;;28.60;49.70;;;;;;4987389;28;20478;-72
2023/06/12 08:53:18;;;;;;;1.57;1.57;;;28.60;49.60;;;;;;4988526;28;20836;-73
2023/06/12 08:55:45;;;;;;;1.97;1.97;;;28.30;49.30;;;;;;4992443;28;20478;-71
2023/06/12 08:58:13;;;;;;;1.50;1.50;;;28.30;50.10;;;;;;4990727;28;20474;-70
2023/06/12 09:00:40;;;;;;;1.47;1.40;;;28.50;50.30;;;;;;4989571;28;20505;-72
2023/06/12 09:03:07;;;;;;;1.80;1.80;;;28.50;50.20;;;;;;4986801;28;20467;-71
2023/06/12 09:05:37;;;;;;;1.30;1.30;;;28.70;50.10;;;;;;4987683;28;20904;-71
2023/06/12 09:08:05;;;;;;;1.33;1.33;;;29.10;50.50;;;;;;4991466;28;21339;-71
2023/06/12 09:10:34;;;;;;;1.90;1.80;;;28.90;48.50;;;;;;4983415;28;20952;-71
2023/06/12 09:13:01;;;;;;;1.20;1.20;;;28.90;48.30;;;;;;4984223;28;20891;-71
2023/06/12 09:15:28;;;;;;;1.70;1.70;;;28.60;48.00;;;;;;4986943;28;20804;-71
2023/06/12 09:17:56;;;;;;;1.60;1.60;;;28.50;48.60;;;;;;4989550;28;20471;-71
2023/06/12 09:20:26;;;;;;;1.50;1.50;;;28.20;48.80;;;;;;4989820;28;20589;-73
2023/06/12 09:22:53;;;;;;;1.70;1.70;;;28.40;49.80;;;;;;4993123;28;20459;-73
2023/06/12 09:25:19;;;;;;;1.90;1.80;;;28.60;50.30;;;;;;4993366;28;20470;-73
2023/06/12 09:27:48;;;;;;;1.97;1.97;;;28.90;49.80;;;;;;4991067;28;20489;-73
2023/06/12 09:30:15;;;;;;;2.10;2.10;;;29.00;49.40;;;;;;4991384;28;20463;-73
2023/06/12 09:32:42;;;;;;;1.67;1.53;;;28.80;50.00;;;;;;4991817;28;20986;-71
2023/06/12 09:35:10;;;;;;;1.70;1.70;;;28.60;49.40;;;;;;4992011;28;20503;-73
2023/06/12 09:37:38;;;;;;;1.43;1.43;;;28.60;50.00;;;;;;4992113;28;20471;-71
2023/06/12 09:40:12;;;;;;;2.00;2.00;;;28.60;51.00;;;;;;4987267;28;20486;-71
2023/06/12 09:42:39;;;;;;;1.53;1.53;;;28.40;50.30;;;;;;4990042;28;20495;-70
2023/06/12 09:45:13;;;;;;;2.00;2.00;;;28.00;49.60;;;;;;4991450;28;21037;-71
2023/06/12 09:47:44;;;;;;;1.77;1.67;;;27.90;50.10;;;;;;4990326;28;20503;-73
2023/06/12 09:50:12;;;;;;;2.13;2.13;;;27.90;50.50;;;;;;4983199;28;20481;-72
2023/06/12 09:52:41;;;;;;;1.20;1.20;;;27.90;50.20;;;;;;4987731;28;20497;-71
2023/06/12 09:55:11;;;;;;;2.33;2.20;;;27.90;49.60;;;;;;4983251;28;20477;-71
2023/06/12 09:57:40;;;;;;;1.13;1.13;;;27.70;49.90;;;;;;4990001;28;20504;-71
2023/06/12 10:00:11;;;;;;;2.33;2.13;;;27.80;50.00;;;;;;4982851;28;21021;-71
2023/06/12 10:02:42;;;;;;;1.27;1.27;;;28.00;50.20;;;;;;4977415;28;20558;-71
2023/06/12 10:05:18;;;;;;;2.00;1.97;;;28.00;50.10;;;;;;4986802;28;20531;-71
2023/06/12 10:07:48;;;;;;;1.60;1.60;;;28.10;49.20;;;;;;4985583;28;20887;-71
2023/06/12 10:10:16;;;;;;;2.00;1.90;;;28.10;48.90;;;;;;4991597;28;20484;-71
2023/06/12 10:12:44;;;;;;;1.73;1.73;;;28.10;47.80;;;;;;4989043;28;20465;-72
2023/06/12 10:15:12;;;;;;;1.47;1.33;;;27.90;47.90;;;;;;4981129;28;20462;-72
2023/06/12 10:17:40;;;;;;;1.90;1.27;;;27.80;47.90;;;;;;4988588;28;20466;-72
2023/06/12 10:20:10;;;;;;;1.73;1.73;;;27.80;48.80;;;;;;4986569;28;20561;-72
2023/06/12 10:22:37;;;;;;;1.10;1.10;;;27.80;48.10;;;;;;4986551;28;20995;-71
2023/06/12 10:25:05;;;;;;;1.37;1.37;;;27.70;47.80;;;;;;4991025;28;20477;-71
2023/06/12 10:27:32;;;;;;;1.40;1.40;;;27.80;47.60;;;;;;4991220;28;20475;-71
2023/06/12 10:30:00;;;;;;;1.83;1.83;;;27.90;47.40;;;;;;4988704;28;20483;-71
2023/06/12 10:32:32;;;;;;;1.33;1.33;;;28.00;46.80;;;;;;4987371;28;20573;-71
2023/06/12 10:35:01;;;;;;;1.67;1.57;;;27.90;47.00;;;;;;4990663;28;20474;-71
2023/06/12 10:37:30;;;;;;;1.30;1.30;;;27.90;47.60;;;;;;4987122;28;20473;-71
2023/06/12 10:40:16;;;;;;;1.57;1.57;;;27.90;47.70;;;;;;4982878;28;20983;-71
2023/06/12 10:42:45;;;;;;;1.50;1.50;;;27.90;46.90;;;;;;4986646;28;20494;-71
2023/06/12 10:45:16;;;;;;;2.33;2.23;;;27.80;47.30;;;;;;4989877;28;20864;-72
2023/06/12 10:47:43;;;;;;;1.40;1.40;;;27.70;47.20;;;;;;4986995;28;20534;-72
2023/06/12 10:50:11;;;;;;;1.40;1.40;;;27.70;46.90;;;;;;4987817;28;20486;-72
2023/06/12 10:52:54;;;;;;;1.30;1.30;;;27.70;47.00;;;;;;4987482;28;20490;-72
2023/06/12 10:55:23;;;;;;;1.00;1.00;;;27.70;47.40;;;;;;4989123;28;20467;-72
2023/06/12 10:57:52;;;;;;;2.07;1.97;;;27.80;47.40;;;;;;4986028;28;20473;-72
2023/06/12 11:00:20;;;;;;;1.80;1.80;;;28.00;46.50;;;;;;4990618;28;20490;-72
2023/06/12 11:02:55;;;;;;;1.67;1.67;;;28.00;46.70;;;;;;4989542;28;20502;-72
2023/06/12 11:05:23;;;;;;;1.40;1.40;;;27.90;46.30;;;;;;4987883;28;20474;-72
2023/06/12 11:07:50;;;;;;;1.67;1.67;;;27.90;47.00;;;;;;4985938;28;20832;-72
2023/06/12 11:10:17;;;;;;;0.93;0.93;;;28.00;46.80;;;;;;4989901;28;20471;-71
2023/06/12 11:12:47;;;;;;;1.70;1.70;;;27.90;46.10;;;;;;4983503;28;20474;-71
2023/06/12 11:15:14;;;;;;;1.60;1.60;;;27.70;46.40;;;;;;4981400;28;20594;-71
2023/06/12 11:17:41;;;;;;;1.67;1.67;;;27.60;46.90;;;;;;4991038;28;20462;-71
2023/06/12 11:20:09;;;;;;;1.50;1.50;;;27.70;47.20;;;;;;4985570;28;20470;-71
2023/06/12 11:22:37;;;;;;;2.30;2.17;;;27.80;47.20;;;;;;4987649;28;20491;-71
2023/06/12 11:25:05;;;;;;;2.50;1.87;;;27.70;46.40;;;;;;4990352;28;20495;-71
2023/06/12 11:27:32;;;;;;;2.10;2.10;;;27.70;47.00;;;;;;4991223;28;20543;-71
2023/06/12 11:30:07;;;;;;;1.80;1.80;;;27.80;47.40;;;;;;4980788;28;20534;-71
2023/06/12 11:32:34;;;;;;;1.60;1.50;;;28.00;48.20;;;;;;4982140;28;20939;-71
2023/06/12 11:35:01;;;;;;;1.37;1.37;;;28.00;47.20;;;;;;4989798;28;20475;-71
2023/06/12 11:37:28;;;;;;;1.50;1.50;;;28.10;47.00;;;;;;4983179;28;20511;-71
2023/06/12 11:40:07;;;;;;;1.50;1.50;;;28.10;46.00;;;;;;4989922;28;20804;-71
2023/06/12 11:42:33;;;;;;;2.77;1.90;;;28.10;45.70;;;;;;4988054;28;20596;-71
2023/06/12 11:45:01;;;;;;;1.17;1.17;;;28.10;45.70;;;;;;4990159;28;20472;-71
2023/06/12 11:47:28;;;;;;;1.50;1.50;;;28.10;45.70;;;;;;4993230;28;20848;-73
2023/06/12 11:49:54;;;;;;;1.40;1.40;;;28.00;46.80;;;;;;4986653;28;20506;-71
2023/06/12 11:52:22;;;;;;;1.33;1.30;;;28.10;46.80;;;;;;4986027;28;20583;-70
2023/06/12 11:54:59;;;;;;;1.47;1.47;;;28.10;46.70;;;;;;4985294;28;20524;-71
2023/06/12 11:57:28;;;;;;;1.90;1.90;;;28.10;46.90;;;;;;4983286;28;20472;-71
2023/06/12 11:59:57;;;;;;;1.70;1.70;;;28.20;46.30;;;;;;4987188;28;20483;-71
2023/06/12 12:02:33;;;;;;;1.70;1.70;;;28.20;46.70;;;;;;4991542;28;20487;-70
2023/06/12 12:05:04;;;;;;;1.90;1.80;;;28.20;45.80;;;;;;4987655;28;20474;-70
2023/06/12 12:07:32;;;;;;;1.93;1.83;;;28.20;46.20;;;;;;4989582;28;20464;-70
2023/06/12 12:10:07;;;;;;;2.00;2.00;;;28.30;46.20;;;;;;4993736;28;20862;-70
2023/06/12 12:12:43;;;;;;;1.40;1.40;;;28.30;47.30;;;;;;4983443;28;20549;-70
2023/06/12 12:15:11;;;;;;;1.93;1.93;;;28.40;46.20;;;;;;4992796;28;20508;-70
2023/06/12 12:17:38;;;;;;;2.37;2.27;;;28.50;46.30;;;;;;4993770;28;20471;-70
2023/06/12 12:20:07;;;;;;;1.80;1.80;;;28.40;44.80;;;;;;4991422;28;20868;-71
2023/06/12 12:22:39;;;;;;;1.47;1.47;;;28.30;44.90;;;;;;4988705;28;20492;-71
2023/06/12 12:25:06;;;;;;;1.70;1.60;;;28.40;44.90;;;;;;4988218;28;21051;-71
2023/06/12 12:27:33;;;;;;;1.80;1.80;;;28.40;45.10;;;;;;4993335;28;20548;-71
2023/06/12 12:30:03;;;;;;;2.10;2.10;;;28.30;44.90;;;;;;4988469;28;20474;-71
2023/06/12 12:32:30;;;;;;;1.90;1.90;;;28.30;45.10;;;;;;4989865;28;20516;-71
2023/06/12 12:34:57;;;;;;;1.60;1.60;;;28.30;45.60;;;;;;4981501;28;20466;-73
2023/06/12 12:37:23;;;;;;;2.53;1.57;;;28.40;45.10;;;;;;4989179;28;20938;-73
2023/06/12 12:39:50;;;;;;;1.70;1.70;;;28.30;44.90;;;;;;4993528;28;20464;-70
2023/06/12 12:42:18;;;;;;;1.63;1.50;;;28.30;44.20;;;;;;4993188;28;20498;-72
2023/06/12 12:44:45;;;;;;;1.73;1.67;;;28.20;44.10;;;;;;4990522;28;20470;-71
2023/06/12 12:47:13;;;;;;;1.73;1.73;;;28.20;44.40;;;;;;4993692;28;20464;-71
2023/06/12 12:49:39;;;;;;;1.50;1.50;;;28.20;43.90;;;;;;4991078;28;20471;-72
2023/06/12 12:52:07;;;;;;;2.00;1.90;;;28.10;42.90;;;;;;4990623;28;20495;-71
2023/06/12 12:54:33;;;;;;;1.40;1.40;;;28.00;43.10;;;;;;4984208;28;20476;-70
2023/06/12 12:57:00;;;;;;;1.70;1.70;;;28.00;43.30;;;;;;4992448;28;20569;-71
2023/06/12 12:59:27;;;;;;;1.83;1.83;;;28.00;43.30;;;;;;4992674;28;20932;-71
2023/06/12 13:01:54;;;;;;;1.80;1.80;;;27.90;43.10;;;;;;4990464;28;20491;-71
2023/06/12 13:04:22;;;;;;;1.80;1.30;;;27.90;42.80;;;;;;4990674;28;20551;-72
2023/06/12 13:06:49;;;;;;;1.67;1.60;;;28.10;42.70;;;;;;4992261;28;20471;-71
2023/06/12 13:09:15;;;;;;;1.90;1.90;;;28.30;41.90;;;;;;4991325;28;20474;-72
2023/06/12 13:11:43;;;;;;;1.50;1.40;;;28.30;41.70;;;;;;4987630;28;20484;-71
2023/06/12 13:14:10;;;;;;;1.90;1.80;;;28.20;41.50;;;;;;4989054;28;20963;-72
2023/06/12 13:16:36;;;;;;;2.30;2.20;;;28.10;42.30;;;;;;4991742;28;20951;-71
2023/06/12 13:19:03;;;;;;;1.50;1.50;;;28.20;42.30;;;;;;4992708;28;20478;-72
2023/06/12 13:21:31;;;;;;;2.27;2.17;;;28.20;42.70;;;;;;4991597;28;20830;-72
2023/06/12 13:23:58;;;;;;;1.50;1.40;;;28.30;42.50;;;;;;4991933;28;20474;-72
2023/06/12 13:26:24;;;;;;;1.70;1.70;;;28.40;42.80;;;;;;4992337;28;20467;-71
2023/06/12 13:28:52;;;;;;;2.73;1.83;;;28.50;42.10;;;;;;4974627;28;20813;-70
2023/06/12 13:31:19;;;;;;;2.00;2.00;;;28.60;41.50;;;;;;4993157;28;20496;-70
2023/06/12 13:33:46;;;;;;;1.50;1.50;;;28.60;41.10;;;;;;5011794;28;20471;-70
2023/06/12 13:36:13;;;;;;;1.40;1.40;;;28.60;40.70;;;;;;4992763;28;20481;-70
2023/06/12 13:38:42;;;;;;;1.70;1.60;;;28.60;41.40;;;;;;4992712;28;20945;-70
2023/06/12 13:41:10;;;;;;;1.47;1.47;;;28.60;40.20;;;;;;4992206;28;20987;-71
2023/06/12 13:43:36;;;;;;;2.40;1.50;;;28.60;39.80;;;;;;4982501;28;20494;-70
2023/06/12 13:46:03;;;;;;;1.80;1.80;;;28.50;39.30;;;;;;4989947;28;20935;-70
2023/06/12 13:48:30;;;;;;;1.30;1.30;;;28.50;39.70;;;;;;4992551;28;20474;-71
2023/06/12 13:50:58;;;;;;;2.10;2.00;;;28.50;39.70;;;;;;4990497;28;20570;-70
2023/06/12 13:53:25;;;;;;;5.57;2.13;;;28.50;39.30;;;;;;4990956;28;20523;-71
2023/06/12 13:55:53;;;;;;;1.73;1.73;;;28.50;39.70;;;;;;4988131;28;20984;-70
2023/06/12 13:58:20;;;;;;;1.97;1.97;;;28.60;39.80;;;;;;4980739;28;20478;-69
2023/06/12 14:00:47;;;;;;;1.43;1.40;;;28.60;38.90;;;;;;4976553;28;20507;-70
2023/06/12 14:03:14;;;;;;;1.47;1.47;;;28.60;39.30;;;;;;4989522;28;20484;-70
2023/06/12 14:05:41;;;;;;;2.73;2.63;;;28.50;39.40;;;;;;4991582;28;20511;-70
2023/06/12 14:08:08;;;;;;;1.70;1.70;;;28.50;39.00;;;;;;4984911;28;20468;-70
2023/06/12 14:10:37;;;;;;;1.87;1.87;;;28.30;39.10;;;;;;4985625;28;20999;-70
2023/06/12 14:13:05;;;;;;;2.10;2.00;;;28.40;39.90;;;;;;4991552;28;20466;-71
2023/06/12 14:15:32;;;;;;;1.77;1.77;;;28.40;38.40;;;;;;4987358;28;20490;-69
2023/06/12 14:18:02;;;;;;;2.50;2.40;;;28.50;38.70;;;;;;5001277;28;20555;-70
2023/06/12 14:20:29;;;;;;;1.90;1.90;;;28.50;38.80;;;;;;4973431;28;20563;-70
2023/06/12 14:22:57;;;;;;;2.40;2.37;;;28.50;38.80;;;;;;4986714;28;20533;-70
2023/06/12 14:25:24;;;;;;;2.87;2.87;;;28.60;37.90;;;;;;4992203;28;20472;-70
2023/06/12 14:27:50;;;;;;;3.70;3.50;;;28.60;38.30;;;;;;4992098;28;20570;-70
2023/06/12 14:30:18;;;;;;;4.23;4.10;;;28.60;37.90;;;;;;4991572;28;20463;-70
2023/06/12 14:32:45;;;;;;;5.23;4.93;;;28.60;38.50;;;;;;4999998;28;21095;-70
2023/06/12 14:35:12;;;;;;;5.47;5.07;;;28.70;38.50;;;;;;4989408;28;20484;-70
2023/06/12 14:37:39;;;;;;;5.60;5.40;;;28.90;38.30;;;;;;4984568;28;20468;-70
2023/06/12 14:40:07;;;;;;;6.47;5.93;;;28.90;37.20;;;;;;4971713;28;20480;-69
2023/06/12 14:42:33;;;;;;;6.57;6.17;;;28.90;37.70;;;;;;4993978;28;20497;-69
2023/06/12 14:45:00;;;;;;;5.50;5.30;;;29.00;37.60;;;;;;4994661;28;20472;-70
2023/06/12 14:47:28;;;;;;;5.27;4.77;;;28.80;37.60;;;;;;4987147;28;20986;-70
2023/06/12 14:49:55;;;;;;;4.60;3.93;;;28.80;37.70;;;;;;4980186;28;20471;-71
2023/06/12 14:52:22;;;;;;;8.00;7.50;;;28.90;38.00;;;;;;4989399;28;20496;-70
2023/06/12 14:54:48;;;;;;;9.40;8.70;;;28.90;37.40;;;;;;4990085;28;20460;-70
2023/06/12 14:57:15;;;;;;;8.63;8.03;;;28.80;37.70;;;;;;4986003;28;21004;-70
2023/06/12 14:59:42;;;;;;;7.77;7.23;;;28.80;37.00;;;;;;4990301;28;20466;-71
2023/06/12 15:02:09;;;;;;;7.37;6.93;;;28.60;36.90;;;;;;4992172;28;20492;-71
2023/06/12 15:04:37;;;;;;;10.70;9.90;;;28.70;36.90;;;;;;4985525;28;20494;-71
2023/06/12 15:07:04;;;;;;;8.50;8.00;;;28.70;37.10;;;;;;4987421;28;20466;-70
2023/06/12 15:09:31;;;;;;;8.30;7.70;;;28.80;37.20;;;;;;4990682;28;20474;-70
2023/06/12 15:11:57;;;;;;;6.13;5.73;;;28.80;37.10;;;;;;4986391;28;20503;-69
2023/06/12 15:14:24;;;;;;;9.17;8.53;;;28.90;36.90;;;;;;4991814;28;20459;-71
2023/06/12 15:16:51;;;;;;;8.53;7.93;;;29.00;36.30;;;;;;4994060;28;20461;-70
2023/06/12 15:19:18;;;;;;;7.00;6.60;;;29.00;36.80;;;;;;4993053;28;20471;-70
2023/06/12 15:21:46;;;;;;;6.97;6.57;;;29.00;37.20;;;;;;4993334;28;20492;-70
2023/06/12 15:24:12;;;;;;;6.07;5.57;;;29.00;37.60;;;;;;4994781;28;20785;-70
2023/06/12 15:26:39;;;;;;;5.53;5.13;;;28.90;37.10;;;;;;4993470;28;20467;-69
2023/06/12 15:29:06;;;;;;;5.50;5.20;;;28.90;38.10;;;;;;4995150;28;20473;-69
2023/06/12 15:31:32;;;;;;;4.57;4.40;;;28.90;37.20;;;;;;4996457;28;20490;-69
2023/06/12 15:33:59;;;;;;;4.27;4.07;;;28.90;37.60;;;;;;4993706;28;20475;-69
2023/06/12 15:36:26;;;;;;;4.13;3.83;;;28.90;37.60;;;;;;4994257;28;20574;-69
2023/06/12 15:38:54;;;;;;;4.17;3.83;;;28.70;37.00;;;;;;4994338;28;20461;-69
2023/06/12 15:41:20;;;;;;;5.63;5.40;;;28.40;37.10;;;;;;4994565;28;20487;-70
2023/06/12 15:43:47;;;;;;;6.00;5.70;;;28.30;37.00;;;;;;4990406;28;20968;-70
2023/06/12 15:46:14;;;;;;;5.93;5.53;;;28.20;38.10;;;;;;4994110;28;20538;-69
2023/06/12 15:48:41;;;;;;;5.50;5.20;;;28.30;38.00;;;;;;4991212;28;20471;-69
2023/06/12 15:51:10;;;;;;;4.83;4.53;;;28.20;37.60;;;;;;4988998;28;20557;-69
2023/06/12 15:53:36;;;;;;;4.23;4.03;;;28.10;37.60;;;;;;4989935;28;21034;-68
2023/06/12 15:56:05;;;;;;;5.40;5.10;;;28.10;38.00;;;;;;4993270;28;20474;-69
2023/06/12 15:58:32;;;;;;;6.50;6.00;;;28.10;39.10;;;;;;4985175;28;20470;-69
2023/06/12 16:00:59;;;;;;;6.47;5.97;;;28.10;38.30;;;;;;4990550;28;20535;-69
2023/06/12 16:03:27;;;;;;;6.30;6.00;;;28.10;38.40;;;;;;4990159;28;20512;-69
2023/06/12 16:05:54;;;;;;;5.20;4.80;;;28.00;39.10;;;;;;4980103;28;20467;-68
2023/06/12 16:08:21;;;;;;;6.10;5.70;;;28.00;38.60;;;;;;4986262;28;20478;-69
2023/06/12 16:10:48;;;;;;;5.90;5.60;;;27.90;38.60;;;;;;4989948;28;20586;-69
2023/06/12 16:13:16;;;;;;;6.80;6.30;;;27.90;38.80;;;;;;4985401;28;20546;-69
2023/06/12 16:15:42;;;;;;;6.87;6.47;;;27.90;38.70;;;;;;4988299;28;20474;-70
2023/06/12 16:18:09;;;;;;;8.00;7.40;;;27.80;39.00;;;;;;4985719;28;20830;-69
2023/06/12 16:20:37;;;;;;;6.87;6.37;;;27.60;39.10;;;;;;4990713;28;20606;-69
2023/06/12 16:23:04;;;;;;;6.50;6.10;;;27.60;39.60;;;;;;4992521;28;20490;-70
2023/06/12 16:25:31;;;;;;;5.80;5.50;;;27.60;39.60;;;;;;4993012;28;20501;-70
2023/06/12 16:27:58;;;;;;;6.17;5.70;;;27.50;40.00;;;;;;4992348;28;20467;-68
2023/06/12 16:30:26;;;;;;;4.90;4.50;;;27.50;39.90;;;;;;4983909;28;20481;-69
2023/06/12 16:32:53;;;;;;;5.77;5.07;;;27.40;39.90;;;;;;4990600;28;20476;-69
2023/06/12 16:35:20;;;;;;;4.37;4.17;;;27.30;40.20;;;;;;4991648;28;20477;-69
2023/06/12 16:37:47;;;;;;;4.47;4.27;;;27.20;40.20;;;;;;4991197;28;20470;-70
2023/06/12 16:40:15;;;;;;;5.20;4.90;;;27.30;40.80;;;;;;4984503;28;20575;-69
2023/06/12 16:42:41;;;;;;;5.10;4.90;;;27.40;41.30;;;;;;4991256;28;20581;-70
2023/06/12 16:45:09;;;;;;;4.27;3.97;;;27.50;40.30;;;;;;4988484;28;20506;-71
2023/06/12 16:47:37;;;;;;;4.60;4.30;;;27.60;39.90;;;;;;4989028;28;20982;-70
2023/06/12 16:50:04;;;;;;;5.27;4.97;;;27.60;39.90;;;;;;4984473;28;20476;-70